createdAt,value
2022-09-02T00:01:02.722Z,2.65
2022-09-02T00:03:34.526Z,3.00
2022-09-02T00:06:01.687Z,2.45
2022-09-02T00:08:28.931Z,2.60
2022-09-02T00:10:55.412Z,2.45
2022-09-02T00:13:22.329Z,2.35
2022-09-02T00:15:49.094Z,2.58
2022-09-02T00:18:18.098Z,2.38
2022-09-02T00:20:45.893Z,3.00
2022-09-02T00:23:13.528Z,3.25
2022-09-02T00:25:40.297Z,3.15
2022-09-02T00:28:06.834Z,2.63
2022-09-02T00:30:34.433Z,3.00
2022-09-02T00:33:01.478Z,3.03
2022-09-02T00:35:29.697Z,2.80
2022-09-02T00:40:37.359Z,2.65
2022-09-02T00:43:08.339Z,3.40
2022-09-02T00:45:36.067Z,3.45
2022-09-02T00:48:02.633Z,3.22
2022-09-02T00:50:30.698Z,2.80
2022-09-02T00:53:00.481Z,2.83
2022-09-02T00:55:29.740Z,2.80
2022-09-02T00:57:59.761Z,2.70
2022-09-02T01:00:34.533Z,2.72
2022-09-02T01:03:05.544Z,2.28
2022-09-02T01:05:33.734Z,2.97
2022-09-02T01:08:00.263Z,2.70
2022-09-02T01:10:28.222Z,2.97
2022-09-02T01:13:00.927Z,2.70
2022-09-02T01:15:30.250Z,2.80
2022-09-02T01:17:56.682Z,2.65
2022-09-02T01:20:25.603Z,2.50
2022-09-02T01:22:52.774Z,2.80
2022-09-02T01:25:22.495Z,3.20
2022-09-02T01:27:49.013Z,2.97
2022-09-02T01:30:21.019Z,3.22
2022-09-02T01:32:47.398Z,3.00
2022-09-02T01:35:14.294Z,3.03
2022-09-02T01:37:40.789Z,2.67
2022-09-02T01:40:21.337Z,2.40
2022-09-02T01:42:53.547Z,2.88
2022-09-02T01:45:19.975Z,2.50
2022-09-02T01:47:46.561Z,2.45
2022-09-02T01:50:13.086Z,2.50
2022-09-02T01:52:39.580Z,2.20
2022-09-02T01:55:06.202Z,2.67
2022-09-02T01:57:32.723Z,2.65
2022-09-02T02:00:01.427Z,2.53
2022-09-02T02:02:28.988Z,2.88
2022-09-02T02:04:55.561Z,3.00
2022-09-02T02:07:22.658Z,3.00
2022-09-02T02:09:49.209Z,3.63
2022-09-02T02:12:16.136Z,3.25
2022-09-02T02:14:45.279Z,3.40
2022-09-02T02:17:11.699Z,3.30
2022-09-02T02:19:38.192Z,3.28
2022-09-02T02:22:07.628Z,3.00
2022-09-02T02:24:34.029Z,2.85
2022-09-02T02:27:00.473Z,3.35
2022-09-02T02:29:29.692Z,2.88
2022-09-02T02:31:56.089Z,3.00
2022-09-02T02:34:22.710Z,3.28
2022-09-02T02:36:49.173Z,3.60
2022-09-02T02:39:15.577Z,3.60
2022-09-02T02:41:44.737Z,3.78
2022-09-02T02:44:11.352Z,4.05
2022-09-02T02:46:37.937Z,3.78
2022-09-02T02:49:05.967Z,3.88
2022-09-02T02:51:33.037Z,3.72
2022-09-02T02:53:59.954Z,3.40
2022-09-02T02:56:26.360Z,3.60
2022-09-02T02:58:52.738Z,3.63
2022-09-02T03:01:19.186Z,3.42
2022-09-02T03:03:45.930Z,3.70
2022-09-02T03:06:12.317Z,3.65
2022-09-02T03:08:38.734Z,3.47
2022-09-02T03:11:07.258Z,3.88
2022-09-02T03:13:34.605Z,3.80
2022-09-02T03:16:01.208Z,3.78
2022-09-02T03:18:27.763Z,3.38
2022-09-02T03:20:54.148Z,3.78
2022-09-02T03:23:20.747Z,3.28
2022-09-02T03:25:51.899Z,3.40
2022-09-02T03:28:18.260Z,3.53
2022-09-02T03:30:46.186Z,3.10
2022-09-02T03:33:12.650Z,3.20
2022-09-02T03:35:40.925Z,3.00
2022-09-02T03:38:07.866Z,3.28
2022-09-02T03:40:34.603Z,3.35
2022-09-02T03:43:01.080Z,3.40
2022-09-02T03:45:27.968Z,3.13
2022-09-02T03:47:54.552Z,3.50
2022-09-02T03:50:22.531Z,2.97
2022-09-02T03:52:49.506Z,3.30
2022-09-02T03:55:16.028Z,3.25
2022-09-02T03:57:42.554Z,3.33
2022-09-02T04:00:09.697Z,3.38
2022-09-02T04:02:36.142Z,2.97
2022-09-02T04:05:03.008Z,3.33
2022-09-02T04:07:29.436Z,3.40
2022-09-02T04:09:56.403Z,3.50
2022-09-02T04:12:23.022Z,3.40
2022-09-02T04:14:49.824Z,3.78
2022-09-02T04:17:18.411Z,3.88
2022-09-02T04:19:45.417Z,4.07
2022-09-02T04:22:11.990Z,4.10
2022-09-02T04:24:38.650Z,3.42
2022-09-02T04:27:05.224Z,3.92
2022-09-02T04:29:34.064Z,3.65
2022-09-02T04:32:00.411Z,4.00
2022-09-02T04:34:26.791Z,3.80
2022-09-02T04:36:53.197Z,3.88
2022-09-02T04:39:19.867Z,3.78
2022-09-02T04:41:46.342Z,3.92
2022-09-02T04:44:12.873Z,4.85
2022-09-02T04:46:39.862Z,4.35
2022-09-02T04:49:06.303Z,3.90
2022-09-02T04:51:32.973Z,3.80
2022-09-02T04:54:02.210Z,3.58
2022-09-02T04:56:29.520Z,3.63
2022-09-02T04:58:55.977Z,3.15
2022-09-02T05:01:23.953Z,2.85
2022-09-02T05:03:51.850Z,3.60
2022-09-02T05:06:19.802Z,3.50
2022-09-02T05:08:48.126Z,3.10
2022-09-02T05:11:19.402Z,3.22
2022-09-02T05:13:51.526Z,4.18
2022-09-02T05:16:19.843Z,3.00
2022-09-02T05:18:46.627Z,3.22
2022-09-02T05:21:12.990Z,3.05
2022-09-02T05:23:39.573Z,3.35
2022-09-02T05:26:06.859Z,3.40
2022-09-02T05:28:33.844Z,3.55
2022-09-02T05:31:11.508Z,3.40
2022-09-02T05:33:40.770Z,4.22
2022-09-02T05:36:08.125Z,3.75
2022-09-02T05:38:34.873Z,3.92
2022-09-02T05:41:08.329Z,4.22
2022-09-02T05:43:35.693Z,4.20
2022-09-02T05:46:06.775Z,3.30
2022-09-02T05:48:51.820Z,4.25
2022-09-02T05:51:18.268Z,3.35
2022-09-02T05:53:44.741Z,3.67
2022-09-02T05:56:11.172Z,3.53
2022-09-02T05:58:37.697Z,3.83
2022-09-02T06:01:11.358Z,3.38
2022-09-02T06:03:38.037Z,3.90
2022-09-02T06:06:06.880Z,3.95
2022-09-02T06:08:33.825Z,3.80
2022-09-02T06:11:03.379Z,3.28
2022-09-02T06:13:30.707Z,2.75
2022-09-02T06:16:00.755Z,2.55
2022-09-02T06:18:27.158Z,2.60
2022-09-02T06:20:53.982Z,2.42
2022-09-02T06:23:20.541Z,2.22
2022-09-02T06:25:48.399Z,2.55
2022-09-02T06:28:15.373Z,2.17
2022-09-02T06:30:43.479Z,2.13
2022-09-02T06:33:10.756Z,2.10
2022-09-02T06:35:38.397Z,1.65
2022-09-02T06:38:05.233Z,2.00
2022-09-02T06:40:31.664Z,2.08
2022-09-02T06:42:58.153Z,1.88
2022-09-02T06:45:24.605Z,1.98
2022-09-02T06:47:51.286Z,2.17
2022-09-02T06:50:17.757Z,1.80
2022-09-02T06:52:44.174Z,1.70
2022-09-02T06:55:12.400Z,1.77
2022-09-02T06:57:39.515Z,2.40
2022-09-02T07:00:07.439Z,2.83
2022-09-02T07:02:34.096Z,1.75
2022-09-02T07:05:15.457Z,2.22
2022-09-02T07:07:43.322Z,1.83
2022-09-02T07:10:10.739Z,1.70
2022-09-02T07:12:38.299Z,1.38
2022-09-02T07:15:05.105Z,1.45
2022-09-02T07:17:31.768Z,1.27
2022-09-02T07:20:00.313Z,1.35
2022-09-02T07:22:27.352Z,1.10
2022-09-02T07:24:53.715Z,1.30
2022-09-02T07:27:20.445Z,1.50
2022-09-02T07:29:49.000Z,1.35
2022-09-02T07:32:16.173Z,1.23
2022-09-02T07:34:42.707Z,1.25
2022-09-02T07:37:11.040Z,1.50
2022-09-02T07:39:37.861Z,0.98
2022-09-02T07:42:04.867Z,1.05
2022-09-02T07:44:33.902Z,1.17
2022-09-02T07:47:00.380Z,1.02
2022-09-02T07:49:29.000Z,1.20
2022-09-02T07:51:57.777Z,0.90
2022-09-02T07:54:25.658Z,1.15
2022-09-02T07:56:52.459Z,0.80
2022-09-02T07:59:21.746Z,0.95
2022-09-02T08:01:48.867Z,0.93
2022-09-02T08:04:16.057Z,1.13
2022-09-02T08:06:42.495Z,0.80
2022-09-02T08:09:12.501Z,0.95
2022-09-02T08:11:39.926Z,0.70
2022-09-02T08:14:08.248Z,0.90
2022-09-02T08:16:35.485Z,0.80
2022-09-02T08:19:01.909Z,0.98
2022-09-02T08:21:30.646Z,0.70
2022-09-02T08:24:00.399Z,0.93
2022-09-02T08:26:28.330Z,0.93
2022-09-02T08:28:55.366Z,1.20
2022-09-02T08:31:21.971Z,1.08
2022-09-02T08:33:48.357Z,1.00
2022-09-02T08:36:15.251Z,1.10
2022-09-02T08:38:42.089Z,1.08
2022-09-02T08:41:12.562Z,0.90
2022-09-02T08:43:43.308Z,1.00
2022-09-02T08:46:12.205Z,1.15
2022-09-02T08:48:40.810Z,1.00
2022-09-02T08:51:12.673Z,0.80
2022-09-02T08:53:47.614Z,1.10
2022-09-02T08:56:15.653Z,0.95
2022-09-02T08:58:47.026Z,0.82
2022-09-02T09:01:24.387Z,0.80
2022-09-02T09:04:14.078Z,0.75
2022-09-02T09:06:59.623Z,0.80
2022-09-02T09:09:41.411Z,0.80
2022-09-02T09:12:31.655Z,0.52
2022-09-02T09:15:03.761Z,0.70
2022-09-02T09:17:48.248Z,0.73
2022-09-02T09:20:22.890Z,0.60
2022-09-02T09:22:51.003Z,0.90
2022-09-02T09:25:17.844Z,0.90
2022-09-02T09:27:47.433Z,0.60
2022-09-02T09:30:15.680Z,0.80
2022-09-02T09:33:00.183Z,0.65
2022-09-02T09:35:28.290Z,0.73
2022-09-02T09:37:55.356Z,0.80
2022-09-02T09:40:25.140Z,0.70
2022-09-02T09:42:55.409Z,0.63
2022-09-02T09:45:29.849Z,0.73
2022-09-02T09:48:11.625Z,0.82
2022-09-02T09:50:38.095Z,0.60
2022-09-02T09:53:21.082Z,0.73
2022-09-02T09:55:57.603Z,0.65
2022-09-02T09:58:30.740Z,0.60
2022-09-02T10:00:59.177Z,0.60
2022-09-02T10:03:26.753Z,0.75
2022-09-02T10:06:16.719Z,0.60
2022-09-02T10:08:50.863Z,0.40
2022-09-02T10:11:28.385Z,0.65
2022-09-02T10:14:02.346Z,0.50
2022-09-02T10:16:44.319Z,0.50
2022-09-02T10:19:36.616Z,0.40
2022-09-02T10:22:22.047Z,0.50
2022-09-02T10:25:07.767Z,0.73
2022-09-02T10:27:40.903Z,0.50
2022-09-02T10:30:07.379Z,0.50
2022-09-02T10:32:52.654Z,0.65
2022-09-02T10:35:37.205Z,0.80
2022-09-02T10:38:12.982Z,0.52
2022-09-02T10:40:52.892Z,0.80
2022-09-02T10:43:28.657Z,0.60
2022-09-02T10:45:58.043Z,0.50
2022-09-02T10:48:50.705Z,0.88
2022-09-02T10:51:25.790Z,0.70
2022-09-02T10:53:52.115Z,0.75
2022-09-02T10:56:27.039Z,0.57
2022-09-02T11:01:28.260Z,0.65
2022-09-02T11:04:07.988Z,0.73
2022-09-02T11:07:01.003Z,0.60
2022-09-02T11:09:32.048Z,0.60
2022-09-02T11:12:07.779Z,0.63
2022-09-02T11:14:37.584Z,0.70
2022-09-02T11:17:13.190Z,0.80
2022-09-02T11:20:02.773Z,0.65
2022-09-02T11:22:44.620Z,0.70
2022-09-02T11:25:14.056Z,0.63
2022-09-02T11:27:48.994Z,0.70
2022-09-02T11:30:17.007Z,0.55
2022-09-02T11:32:43.747Z,0.70
2022-09-02T11:35:13.155Z,0.77
2022-09-02T11:38:11.858Z,1.00
2022-09-02T11:43:50.505Z,0.60
2022-09-02T11:46:31.274Z,0.70
2022-09-02T11:48:57.933Z,0.63
2022-09-02T11:51:36.250Z,0.60
2022-09-02T11:54:04.811Z,0.77
2022-09-02T11:56:36.226Z,0.70
2022-09-02T11:59:04.104Z,0.70
2022-09-02T12:01:34.662Z,0.88
2022-09-02T12:07:12.991Z,0.90
2022-09-02T12:09:48.690Z,0.75
2022-09-02T12:12:34.385Z,0.80
2022-09-02T12:15:03.568Z,0.60
2022-09-02T12:17:37.279Z,0.60
2022-09-02T12:20:05.551Z,0.68
2022-09-02T12:22:33.062Z,0.77
2022-09-02T12:25:01.820Z,0.65
2022-09-02T12:27:36.753Z,0.68
2022-09-02T12:30:07.747Z,0.82
2022-09-02T12:32:46.551Z,0.90
2022-09-02T12:35:14.023Z,0.70
2022-09-02T12:37:52.018Z,0.80
2022-09-02T12:40:24.482Z,0.90
2022-09-02T12:42:56.651Z,0.80
2022-09-02T12:45:28.679Z,1.08
2022-09-02T12:48:07.204Z,0.80
2022-09-02T12:50:54.757Z,0.90
2022-09-02T12:53:27.010Z,0.82
2022-09-02T12:56:02.003Z,0.70
2022-09-02T12:58:31.720Z,0.80
2022-09-02T13:01:06.043Z,0.90
2022-09-02T13:03:38.427Z,0.70
2022-09-02T13:06:13.914Z,0.60
2022-09-02T13:08:46.602Z,0.80
2022-09-02T13:11:31.608Z,0.77
2022-09-02T13:14:14.926Z,0.60
2022-09-02T13:16:44.415Z,0.65
2022-09-02T13:19:33.039Z,0.70
2022-09-02T13:21:59.481Z,0.63
2022-09-02T13:24:32.234Z,0.70
2022-09-02T13:27:20.330Z,0.82
2022-09-02T13:29:46.873Z,0.63
2022-09-02T13:32:15.795Z,0.70
2022-09-02T13:34:46.466Z,1.00
2022-09-02T13:37:26.998Z,0.70
2022-09-02T13:39:53.358Z,0.65
2022-09-02T13:42:22.291Z,0.77
2022-09-02T13:44:49.933Z,0.70
2022-09-02T13:47:17.771Z,0.50
2022-09-02T13:49:47.813Z,0.80
2022-09-02T13:52:27.456Z,0.60
2022-09-02T13:55:11.001Z,0.70
2022-09-02T13:57:38.381Z,0.80
2022-09-02T14:00:06.781Z,0.50
2022-09-02T14:02:34.572Z,0.63
2022-09-02T14:05:15.484Z,0.88
2022-09-02T14:07:44.772Z,0.80
2022-09-02T14:10:13.494Z,1.02
2022-09-02T14:12:40.219Z,0.82
2022-09-02T14:15:07.555Z,0.85
2022-09-02T14:17:36.004Z,0.60
2022-09-02T14:20:08.948Z,0.57
2022-09-02T14:22:35.986Z,0.60
2022-09-02T14:25:28.467Z,0.68
2022-09-02T14:27:55.985Z,0.70
2022-09-02T14:30:35.809Z,0.70
2022-09-02T14:33:20.817Z,0.68
2022-09-02T14:35:59.607Z,0.60
2022-09-02T14:38:27.193Z,0.60
2022-09-02T14:41:10.826Z,0.50
2022-09-02T14:43:50.627Z,0.60
2022-09-02T14:46:22.995Z,0.90
2022-09-02T14:49:12.491Z,0.73
2022-09-02T14:51:53.024Z,0.80
2022-09-02T14:54:39.768Z,0.60
2022-09-02T14:57:19.332Z,0.82
2022-09-02T14:59:45.833Z,0.50
2022-09-02T15:02:44.586Z,0.60
2022-09-02T15:05:13.651Z,0.63
2022-09-02T15:07:40.247Z,0.80
2022-09-02T15:10:09.746Z,0.70
2022-09-02T15:12:43.490Z,0.80
2022-09-02T15:15:09.951Z,0.77
2022-09-02T15:17:36.334Z,0.47
2022-09-02T15:20:03.277Z,0.60
2022-09-02T15:22:30.717Z,0.50
2022-09-02T15:24:58.226Z,0.45
2022-09-02T15:27:24.578Z,0.80
2022-09-02T15:29:50.971Z,0.80
2022-09-02T15:32:17.391Z,0.60
2022-09-02T15:34:43.861Z,0.57
2022-09-02T15:37:13.061Z,0.60
2022-09-02T15:39:40.214Z,0.70
2022-09-02T15:42:06.663Z,0.85
2022-09-02T15:44:33.038Z,0.70
2022-09-02T15:46:59.453Z,0.70
2022-09-02T15:49:25.929Z,0.60
2022-09-02T15:51:54.985Z,0.73
2022-09-02T15:54:22.816Z,0.55
2022-09-02T15:56:53.788Z,0.70
2022-09-02T15:59:23.362Z,0.60
2022-09-02T16:01:51.522Z,0.80
2022-09-02T16:04:18.417Z,0.65
2022-09-02T16:06:47.742Z,0.60
2022-09-02T16:09:14.980Z,0.60
2022-09-02T16:11:43.513Z,0.70
2022-09-02T16:14:10.284Z,1.00
2022-09-02T16:16:37.097Z,0.70
2022-09-02T16:19:05.170Z,0.60
2022-09-02T16:21:31.615Z,0.98
2022-09-02T16:23:57.994Z,0.90
2022-09-02T16:26:25.574Z,0.70
2022-09-02T16:28:53.181Z,0.73
2022-09-02T16:31:20.447Z,0.60
2022-09-02T16:33:54.284Z,0.70
2022-09-02T16:36:21.225Z,0.68
2022-09-02T16:38:47.567Z,0.70
2022-09-02T16:41:25.614Z,0.95
2022-09-02T16:43:52.232Z,0.93
2022-09-02T16:46:18.957Z,0.75
2022-09-02T16:48:49.139Z,1.05
2022-09-02T16:51:16.091Z,0.63
2022-09-02T16:53:42.731Z,0.80
2022-09-02T16:56:13.118Z,1.02
2022-09-02T16:58:39.833Z,1.00
2022-09-02T17:01:11.911Z,0.90
2022-09-02T17:03:39.124Z,0.70
2022-09-02T17:06:05.805Z,0.77
2022-09-02T17:08:32.269Z,0.70
2022-09-02T17:11:10.744Z,0.70
2022-09-02T17:13:37.184Z,0.60
2022-09-02T17:16:03.569Z,0.77
2022-09-02T17:18:29.937Z,0.70
2022-09-02T17:21:15.398Z,0.93
2022-09-02T17:23:42.061Z,1.05
2022-09-02T17:26:08.460Z,1.17
2022-09-02T17:28:34.916Z,1.20
2022-09-02T17:31:03.162Z,1.40
2022-09-02T17:33:29.701Z,1.02
2022-09-02T17:35:56.673Z,1.10
2022-09-02T17:38:26.746Z,1.45
2022-09-02T17:41:16.223Z,1.23
2022-09-02T17:43:42.625Z,1.25
2022-09-02T17:46:09.390Z,1.23
2022-09-02T17:48:49.051Z,1.10
2022-09-02T17:51:20.296Z,1.15
2022-09-02T17:53:46.816Z,1.35
2022-09-02T17:56:15.924Z,1.20
2022-09-02T17:58:55.185Z,1.20
2022-09-02T18:01:24.563Z,1.42
2022-09-02T18:03:51.013Z,1.38
2022-09-02T18:06:26.015Z,1.13
2022-09-02T18:08:55.258Z,1.25
2022-09-02T18:11:22.553Z,1.50
2022-09-02T18:14:08.119Z,1.27
2022-09-02T18:16:42.313Z,1.07
2022-09-02T18:19:19.463Z,1.20
2022-09-02T18:21:49.054Z,1.00
2022-09-02T18:24:18.542Z,1.40
2022-09-02T18:27:07.654Z,1.42
2022-09-02T18:29:46.058Z,1.75
2022-09-02T18:32:18.684Z,1.40
2022-09-02T18:34:54.253Z,1.30
2022-09-02T18:37:21.589Z,1.73
2022-09-02T18:40:02.515Z,1.63
2022-09-02T18:42:45.463Z,2.42
2022-09-02T18:45:21.598Z,2.03
2022-09-02T18:47:52.778Z,1.58
2022-09-02T18:50:50.944Z,1.60
2022-09-02T18:53:20.889Z,1.58
2022-09-02T18:55:47.756Z,1.42
2022-09-02T18:58:23.318Z,1.52
2022-09-02T19:03:29.890Z,2.00
2022-09-02T19:05:56.618Z,1.90
2022-09-02T19:08:35.377Z,1.65
2022-09-02T19:11:01.821Z,2.33
2022-09-02T19:13:29.148Z,2.58
2022-09-02T19:15:59.618Z,2.10
2022-09-02T19:18:30.532Z,2.15
2022-09-02T19:20:57.849Z,2.20
2022-09-02T19:23:24.737Z,2.22
2022-09-02T19:25:51.145Z,2.10
2022-09-02T19:28:18.209Z,2.20
2022-09-02T19:30:45.158Z,1.90
2022-09-02T19:33:13.686Z,1.95
2022-09-02T19:35:42.773Z,1.90
2022-09-02T19:38:09.407Z,2.08
2022-09-02T19:40:36.539Z,2.33
2022-09-02T19:43:05.198Z,2.10
2022-09-02T19:45:36.044Z,2.00
2022-09-02T19:48:07.536Z,2.17
2022-09-02T19:50:40.836Z,1.98
2022-09-02T19:53:07.371Z,1.98
2022-09-02T19:55:33.914Z,2.30
2022-09-02T19:58:00.375Z,2.00
2022-09-02T20:00:27.886Z,2.30
2022-09-02T20:02:54.979Z,2.30
2022-09-02T20:05:24.380Z,2.03
2022-09-02T20:07:50.895Z,2.05
2022-09-02T20:10:20.510Z,2.08
2022-09-02T20:12:54.142Z,1.80
2022-09-02T20:15:20.822Z,1.70
2022-09-02T20:17:47.284Z,1.75
2022-09-02T20:20:18.500Z,1.63
2022-09-02T20:22:47.919Z,1.70
2022-09-02T20:25:14.646Z,2.13
2022-09-02T20:27:52.784Z,1.70
2022-09-02T20:30:20.200Z,2.03
2022-09-02T20:32:46.611Z,2.08
2022-09-02T20:35:22.175Z,1.65
2022-09-02T20:37:57.011Z,1.92
2022-09-02T20:40:27.174Z,1.50
2022-09-02T20:43:09.214Z,1.70
2022-09-02T20:45:38.341Z,1.65
2022-09-02T20:48:10.709Z,1.63
2022-09-02T20:50:53.138Z,1.65
2022-09-02T20:53:19.489Z,1.30
2022-09-02T20:56:10.506Z,1.65
2022-09-02T20:58:42.363Z,1.77
2022-09-02T21:01:10.778Z,1.83
2022-09-02T21:03:43.111Z,1.80
2022-09-02T21:06:10.953Z,1.75
2022-09-02T21:08:42.042Z,3.38
2022-09-02T21:11:13.009Z,1.73
2022-09-02T21:13:46.769Z,1.70
2022-09-02T21:16:16.056Z,1.80
2022-09-02T21:19:00.672Z,2.28
2022-09-02T21:21:47.265Z,1.75
2022-09-02T21:24:13.638Z,2.10
2022-09-02T21:26:49.141Z,2.00
2022-09-02T21:32:00.402Z,2.05
2022-09-02T21:34:29.767Z,2.00
2022-09-02T21:37:00.868Z,2.25
2022-09-02T21:39:28.793Z,2.20
2022-09-02T21:41:55.219Z,2.33
2022-09-02T21:44:27.946Z,2.20
2022-09-02T21:47:01.120Z,2.00
2022-09-02T21:49:33.880Z,2.40
2022-09-02T21:52:06.365Z,2.10
2022-09-02T21:54:36.206Z,2.83
2022-09-02T21:57:15.864Z,2.38
2022-09-02T22:00:00.961Z,2.00
2022-09-02T22:02:50.507Z,2.33
2022-09-02T22:05:26.025Z,2.17
2022-09-02T22:08:01.447Z,1.92
2022-09-02T22:10:32.765Z,1.95
2022-09-02T22:13:01.152Z,2.45
2022-09-02T22:15:34.605Z,2.33
2022-09-02T22:18:21.289Z,2.08
2022-09-02T22:20:53.046Z,2.20
2022-09-02T22:23:25.629Z,2.03
2022-09-02T22:25:54.516Z,2.30
2022-09-02T22:28:25.906Z,2.22
2022-09-02T22:30:56.928Z,2.25
2022-09-02T22:33:27.920Z,2.17
2022-09-02T22:36:00.651Z,2.35
2022-09-02T22:38:49.195Z,1.90
2022-09-02T22:41:24.179Z,2.13
2022-09-02T22:44:06.443Z,2.35
2022-09-02T22:46:54.618Z,1.77
2022-09-02T22:49:40.281Z,1.90
2022-09-02T22:52:32.391Z,1.88
2022-09-02T22:54:58.830Z,1.83
2022-09-02T22:57:43.766Z,1.85
2022-09-02T23:00:11.933Z,1.90
2022-09-02T23:02:53.318Z,2.58
2022-09-02T23:05:43.977Z,1.83
2022-09-02T23:08:17.038Z,1.90
2022-09-02T23:10:47.318Z,1.92
2022-09-02T23:13:20.063Z,1.80
2022-09-02T23:16:06.252Z,1.95
2022-09-02T23:21:05.746Z,2.15
2022-09-02T23:23:55.515Z,1.98
2022-09-02T23:26:22.919Z,1.80
2022-09-02T23:29:04.673Z,1.77
2022-09-02T23:31:50.661Z,2.08
2022-09-02T23:34:29.612Z,2.00
2022-09-02T23:37:25.141Z,2.10
2022-09-02T23:39:51.565Z,2.00
2022-09-02T23:42:18.911Z,1.80
2022-09-02T23:44:45.977Z,1.90
2022-09-02T23:47:12.349Z,2.00
2022-09-02T23:49:57.748Z,1.90
2022-09-02T23:52:42.971Z,2.30
2022-09-02T23:55:32.666Z,2.00
2022-09-02T23:58:02.192Z,2.10
